createdAt,value
2018-01-07T00:01:14.805Z,92.11
2018-01-07T00:03:42.654Z,92.54
2018-01-07T00:06:10.177Z,93.05
2018-01-07T00:08:37.671Z,92.60
2018-01-07T00:11:05.386Z,92.70
2018-01-07T00:13:32.896Z,92.83
2018-01-07T00:16:00.426Z,92.86
2018-01-07T00:18:27.949Z,92.61
2018-01-07T00:20:55.467Z,92.78
2018-01-07T00:23:22.975Z,93.06
2018-01-07T00:25:50.496Z,93.09
2018-01-07T00:28:18.080Z,93.21
2018-01-07T00:30:45.617Z,92.98
2018-01-07T00:33:13.146Z,93.15
2018-01-07T00:35:40.614Z,93.49
2018-01-07T00:38:08.141Z,93.13
2018-01-07T00:40:35.675Z,93.28
2018-01-07T00:43:03.154Z,93.59
2018-01-07T00:45:30.650Z,93.37
2018-01-07T00:47:58.172Z,92.96
2018-01-07T00:50:25.633Z,93.28
2018-01-07T00:52:53.149Z,93.36
2018-01-07T00:55:20.732Z,93.68
2018-01-07T00:57:48.211Z,93.58
2018-01-07T01:00:15.683Z,93.48
2018-01-07T01:02:43.268Z,93.80
2018-01-07T01:05:10.798Z,93.60
2018-01-07T01:07:38.266Z,93.65
2018-01-07T01:10:05.779Z,93.60
2018-01-07T01:12:33.240Z,93.40
2018-01-07T01:15:00.898Z,93.54
2018-01-07T01:17:28.370Z,93.62
2018-01-07T01:19:55.843Z,93.84
2018-01-07T01:22:23.294Z,94.27
2018-01-07T01:24:50.785Z,94.36
2018-01-07T01:27:18.240Z,94.37
2018-01-07T01:29:45.722Z,94.52
2018-01-07T01:32:13.287Z,94.28
2018-01-07T01:34:40.786Z,94.71
2018-01-07T01:37:08.273Z,94.06
2018-01-07T01:39:35.811Z,94.50
2018-01-07T01:42:03.415Z,94.10
2018-01-07T01:44:30.892Z,93.92
2018-01-07T01:46:58.415Z,94.30
2018-01-07T01:49:25.891Z,94.14
2018-01-07T01:51:53.362Z,94.57
2018-01-07T01:54:20.930Z,94.54
2018-01-07T01:56:48.401Z,94.02
2018-01-07T01:59:15.874Z,94.24
2018-01-07T02:01:43.354Z,93.85
2018-01-07T02:04:10.818Z,93.78
2018-01-07T02:06:38.281Z,94.22
2018-01-07T02:09:05.744Z,94.69
2018-01-07T02:11:33.216Z,94.27
2018-01-07T02:14:00.687Z,94.13
2018-01-07T02:16:28.145Z,93.43
2018-01-07T02:18:55.742Z,94.42
2018-01-07T02:21:23.202Z,94.48
2018-01-07T02:23:50.682Z,94.55
2018-01-07T02:26:18.156Z,94.14
2018-01-07T02:28:45.629Z,94.37
2018-01-07T02:31:13.084Z,94.00
2018-01-07T02:33:40.583Z,94.29
2018-01-07T02:36:08.088Z,94.61
2018-01-07T02:38:35.587Z,94.65
2018-01-07T02:41:03.066Z,94.29
2018-01-07T02:43:30.630Z,94.06
2018-01-07T02:45:58.099Z,94.33
2018-01-07T02:48:25.570Z,94.31
2018-01-07T02:50:53.061Z,94.68
2018-01-07T02:53:20.613Z,94.75
2018-01-07T02:55:48.083Z,94.99
2018-01-07T02:58:15.650Z,94.46
2018-01-07T03:00:43.214Z,94.01
2018-01-07T03:03:10.686Z,94.15
2018-01-07T03:05:38.143Z,94.14
2018-01-07T03:08:05.638Z,93.79
2018-01-07T03:10:33.095Z,94.04
2018-01-07T03:13:00.673Z,93.96
2018-01-07T03:15:28.154Z,93.81
2018-01-07T03:17:55.641Z,93.39
2018-01-07T03:20:23.162Z,93.96
2018-01-07T03:22:50.629Z,93.40
2018-01-07T03:25:18.090Z,93.87
2018-01-07T03:27:45.585Z,94.18
2018-01-07T03:30:13.062Z,93.99
2018-01-07T03:32:40.623Z,93.76
2018-01-07T03:35:11.160Z,93.76
2018-01-07T03:37:38.650Z,93.98
2018-01-07T03:40:06.127Z,94.24
2018-01-07T03:42:34.417Z,93.83
2018-01-07T03:45:01.985Z,94.08
2018-01-07T03:47:29.450Z,93.00
2018-01-07T03:49:56.922Z,93.75
2018-01-07T03:52:24.427Z,93.94
2018-01-07T03:54:51.898Z,93.88
2018-01-07T03:57:19.365Z,93.12
2018-01-07T03:59:46.905Z,93.33
2018-01-07T04:02:14.379Z,93.76
2018-01-07T04:04:41.839Z,93.51
2018-01-07T04:07:09.310Z,94.29
2018-01-07T04:09:36.781Z,93.96
2018-01-07T04:12:04.261Z,94.70
2018-01-07T04:14:31.731Z,94.68
2018-01-07T04:16:59.203Z,94.03
2018-01-07T04:19:26.805Z,93.99
2018-01-07T04:21:54.282Z,93.51
2018-01-07T04:24:21.801Z,93.20
2018-01-07T04:26:49.295Z,93.14
2018-01-07T04:29:16.837Z,93.23
2018-01-07T04:31:44.305Z,92.93
2018-01-07T04:34:11.782Z,92.28
2018-01-07T04:36:39.350Z,92.91
2018-01-07T04:39:06.825Z,94.14
2018-01-07T04:41:34.328Z,93.68
2018-01-07T04:44:01.817Z,94.13
2018-01-07T04:46:29.290Z,93.26
2018-01-07T04:48:56.811Z,93.55
2018-01-07T04:51:24.312Z,94.06
2018-01-07T04:53:51.778Z,93.95
2018-01-07T04:56:19.410Z,93.62
2018-01-07T04:58:46.875Z,94.46
2018-01-07T05:01:14.461Z,94.05
2018-01-07T05:03:41.914Z,94.57
2018-01-07T05:06:09.394Z,94.37
2018-01-07T05:08:36.884Z,94.11
2018-01-07T05:11:04.409Z,93.67
2018-01-07T05:13:31.946Z,93.62
2018-01-07T05:15:59.418Z,93.73
2018-01-07T05:18:26.889Z,93.87
2018-01-07T05:20:54.346Z,93.28
2018-01-07T05:23:21.898Z,93.69
2018-01-07T05:25:49.379Z,93.41
2018-01-07T05:28:16.847Z,93.98
2018-01-07T05:30:44.419Z,94.19
2018-01-07T05:33:11.880Z,93.40
2018-01-07T05:35:39.375Z,93.34
2018-01-07T05:38:06.846Z,94.46
2018-01-07T05:40:34.343Z,94.13
2018-01-07T05:43:01.846Z,94.78
2018-01-07T05:45:29.286Z,94.51
2018-01-07T05:47:56.770Z,94.48
2018-01-07T05:50:24.238Z,94.21
2018-01-07T05:52:51.709Z,94.02
2018-01-07T05:55:19.170Z,93.15
2018-01-07T05:57:46.681Z,93.41
2018-01-07T06:00:14.238Z,93.33
2018-01-07T06:02:41.808Z,93.55
2018-01-07T06:05:09.271Z,94.10
2018-01-07T06:07:36.750Z,93.46
2018-01-07T06:10:04.210Z,93.43
2018-01-07T06:12:31.726Z,93.13
2018-01-07T06:14:59.197Z,92.92
2018-01-07T06:17:26.743Z,93.15
2018-01-07T06:19:54.228Z,93.49
2018-01-07T06:22:21.682Z,93.62
2018-01-07T06:24:49.245Z,93.25
2018-01-07T06:27:16.734Z,93.37
2018-01-07T06:29:44.285Z,93.48
2018-01-07T06:32:11.763Z,93.78
2018-01-07T06:34:39.339Z,93.66
2018-01-07T06:37:06.811Z,93.68
2018-01-07T06:39:34.272Z,93.21
2018-01-07T06:42:01.864Z,93.36
2018-01-07T06:44:29.326Z,93.68
2018-01-07T06:46:56.786Z,93.06
2018-01-07T06:49:24.246Z,93.25
2018-01-07T06:51:51.721Z,93.34
2018-01-07T06:54:19.195Z,93.05
2018-01-07T06:56:46.658Z,92.41
2018-01-07T06:59:14.138Z,92.34
2018-01-07T07:01:41.613Z,92.63
2018-01-07T07:04:09.064Z,92.85
2018-01-07T07:06:36.548Z,93.06
2018-01-07T07:09:04.189Z,93.19
2018-01-07T07:11:31.690Z,93.66
2018-01-07T07:13:59.152Z,93.72
2018-01-07T07:16:26.610Z,93.10
2018-01-07T07:18:54.066Z,93.75
2018-01-07T07:21:21.566Z,92.79
2018-01-07T07:23:49.045Z,93.01
2018-01-07T07:26:16.515Z,93.24
2018-01-07T07:28:44.081Z,93.73
2018-01-07T07:31:11.561Z,93.70
2018-01-07T07:33:39.040Z,93.46
2018-01-07T07:36:06.506Z,93.43
2018-01-07T07:38:34.269Z,93.89
2018-01-07T07:41:01.894Z,94.18
2018-01-07T07:43:29.380Z,93.94
2018-01-07T07:45:56.855Z,93.47
2018-01-07T07:48:24.344Z,93.44
2018-01-07T07:50:51.825Z,93.01
2018-01-07T07:53:19.398Z,93.42
2018-01-07T07:55:46.894Z,93.04
2018-01-07T07:58:14.349Z,93.00
2018-01-07T08:00:42.220Z,93.21
2018-01-07T08:03:09.683Z,93.75
2018-01-07T08:05:37.445Z,93.25
2018-01-07T08:08:04.909Z,93.45
2018-01-07T08:10:32.463Z,94.07
2018-01-07T08:12:59.966Z,93.56
2018-01-07T08:15:27.452Z,93.53
2018-01-07T08:17:54.958Z,93.30
2018-01-07T08:20:22.481Z,93.14
2018-01-07T08:22:49.953Z,93.28
2018-01-07T08:25:17.550Z,92.30
2018-01-07T08:27:45.097Z,92.26
2018-01-07T08:30:12.726Z,92.78
2018-01-07T08:32:40.171Z,92.31
2018-01-07T08:35:07.703Z,92.01
2018-01-07T08:37:35.146Z,92.22
2018-01-07T08:40:02.614Z,92.49
2018-01-07T08:42:30.075Z,92.53
2018-01-07T08:44:57.615Z,93.25
2018-01-07T08:47:25.067Z,92.91
2018-01-07T08:49:52.937Z,93.44
2018-01-07T08:52:20.529Z,93.16
2018-01-07T08:54:47.981Z,92.43
2018-01-07T08:57:15.449Z,90.27
2018-01-07T08:59:43.018Z,91.35
2018-01-07T09:02:10.509Z,91.15
2018-01-07T09:04:38.110Z,90.03
2018-01-07T09:07:05.592Z,90.30
2018-01-07T09:09:33.077Z,89.22
2018-01-07T09:12:00.561Z,90.13
2018-01-07T09:14:28.047Z,89.58
2018-01-07T09:16:55.548Z,90.18
2018-01-07T09:19:23.014Z,90.33
2018-01-07T09:21:50.506Z,90.59
2018-01-07T09:24:17.983Z,91.24
2018-01-07T09:26:45.583Z,92.19
2018-01-07T09:29:13.046Z,91.99
2018-01-07T09:31:40.553Z,91.63
2018-01-07T09:34:08.030Z,92.18
2018-01-07T09:36:35.496Z,91.73
2018-01-07T09:39:02.960Z,91.81
2018-01-07T09:41:30.412Z,91.73
2018-01-07T09:43:57.919Z,92.03
2018-01-07T09:46:25.418Z,92.16
2018-01-07T09:48:52.904Z,92.49
2018-01-07T09:51:24.212Z,91.73
2018-01-07T09:53:51.671Z,91.14
2018-01-07T09:56:19.125Z,91.35
2018-01-07T09:58:46.594Z,91.83
2018-01-07T10:01:14.061Z,91.64
2018-01-07T10:03:41.579Z,92.26
2018-01-07T10:06:09.044Z,91.53
2018-01-07T10:08:36.499Z,90.99
2018-01-07T10:11:03.975Z,90.78
2018-01-07T10:13:31.476Z,91.28
2018-01-07T10:16:02.649Z,91.81
2018-01-07T10:18:30.096Z,91.47
2018-01-07T10:20:57.568Z,91.62
2018-01-07T10:23:25.027Z,91.83
2018-01-07T10:25:52.515Z,91.56
2018-01-07T10:28:19.991Z,91.28
2018-01-07T10:30:47.504Z,92.18
2018-01-07T10:33:14.973Z,92.61
2018-01-07T10:35:42.458Z,91.63
2018-01-07T10:38:09.937Z,91.63
2018-01-07T10:40:37.392Z,90.98
2018-01-07T10:43:04.860Z,91.88
2018-01-07T10:45:32.322Z,92.28
2018-01-07T10:47:59.790Z,91.31
2018-01-07T10:50:27.269Z,92.26
2018-01-07T10:52:54.730Z,91.95
2018-01-07T10:55:22.185Z,91.66
2018-01-07T10:57:49.742Z,91.25
2018-01-07T11:00:17.193Z,91.91
2018-01-07T11:02:44.662Z,92.05
2018-01-07T11:05:12.124Z,90.79
2018-01-07T11:07:39.586Z,90.59
2018-01-07T11:10:07.064Z,91.10
2018-01-07T11:12:34.527Z,91.96
2018-01-07T11:15:02.003Z,91.72
2018-01-07T11:17:29.474Z,91.01
2018-01-07T11:19:57.139Z,91.50
2018-01-07T11:22:24.670Z,92.06
2018-01-07T11:24:52.188Z,90.68
2018-01-07T11:27:19.721Z,92.02
2018-01-07T11:29:47.184Z,92.20
2018-01-07T11:32:14.662Z,91.79
2018-01-07T11:34:42.117Z,90.79
2018-01-07T11:37:09.609Z,90.87
2018-01-07T11:39:37.092Z,91.38
2018-01-07T11:42:04.585Z,92.19
2018-01-07T11:44:32.050Z,91.70
2018-01-07T11:46:59.628Z,91.58
2018-01-07T11:49:27.116Z,91.42
2018-01-07T11:51:54.569Z,90.87
2018-01-07T11:54:22.056Z,90.79
2018-01-07T11:56:49.539Z,91.61
2018-01-07T11:59:17.024Z,91.30
2018-01-07T12:01:44.484Z,91.65
2018-01-07T12:04:11.959Z,91.26
2018-01-07T12:06:39.425Z,91.22
2018-01-07T12:09:06.883Z,92.00
2018-01-07T12:11:34.353Z,91.90
2018-01-07T12:14:01.853Z,91.07
2018-01-07T12:16:29.347Z,90.70
2018-01-07T12:18:56.848Z,91.40
2018-01-07T12:21:25.246Z,91.00
2018-01-07T12:23:52.697Z,90.87
2018-01-07T12:26:20.161Z,92.09
2018-01-07T12:28:47.642Z,91.71
2018-01-07T12:31:15.132Z,91.47
2018-01-07T12:33:42.581Z,91.29
2018-01-07T12:36:10.093Z,90.60
2018-01-07T12:38:37.604Z,90.66
2018-01-07T12:41:05.086Z,91.09
2018-01-07T12:43:32.587Z,90.71
2018-01-07T12:46:00.054Z,91.19
2018-01-07T12:48:27.541Z,90.70
2018-01-07T12:50:55.068Z,90.84
2018-01-07T12:53:22.542Z,90.25
2018-01-07T12:55:49.997Z,90.00
2018-01-07T12:58:17.475Z,90.62
2018-01-07T13:00:45.036Z,90.60
2018-01-07T13:03:12.546Z,90.60
2018-01-07T13:05:40.010Z,90.91
2018-01-07T13:08:07.460Z,90.94
2018-01-07T13:10:34.990Z,90.33
2018-01-07T13:13:02.547Z,90.55
2018-01-07T13:15:30.092Z,90.46
2018-01-07T13:17:57.570Z,91.19
2018-01-07T13:20:25.030Z,90.86
2018-01-07T13:22:52.509Z,90.80
2018-01-07T13:25:19.973Z,90.80
2018-01-07T13:27:48.353Z,91.18
2018-01-07T13:30:15.865Z,91.14
2018-01-07T13:32:43.346Z,90.45
2018-01-07T13:35:10.820Z,90.74
2018-01-07T13:37:38.276Z,90.58
2018-01-07T13:40:05.748Z,90.93
2018-01-07T13:42:33.258Z,90.62
2018-01-07T13:45:00.837Z,91.10
2018-01-07T13:47:28.295Z,91.11
2018-01-07T13:49:55.772Z,90.65
2018-01-07T13:52:23.286Z,91.66
2018-01-07T13:54:50.813Z,91.50
2018-01-07T13:57:18.325Z,91.12
2018-01-07T13:59:45.826Z,91.59
2018-01-07T14:02:13.306Z,91.22
2018-01-07T14:04:40.816Z,90.55
2018-01-07T14:07:08.371Z,90.85
2018-01-07T14:09:35.891Z,91.41
2018-01-07T14:12:03.381Z,91.02
2018-01-07T14:14:30.889Z,90.90
2018-01-07T14:16:58.375Z,90.67
2018-01-07T14:19:25.858Z,90.99
2018-01-07T14:21:53.364Z,91.75
2018-01-07T14:24:20.904Z,91.77
2018-01-07T14:26:48.462Z,91.59
2018-01-07T14:29:15.983Z,91.40
2018-01-07T14:31:43.441Z,91.36
2018-01-07T14:34:10.918Z,90.87
2018-01-07T14:36:38.501Z,90.63
2018-01-07T14:39:24.311Z,90.93
2018-01-07T14:41:59.293Z,91.37
2018-01-07T14:44:26.802Z,90.77
2018-01-07T14:46:54.260Z,90.69
2018-01-07T14:49:21.748Z,90.68
2018-01-07T14:51:49.279Z,90.59
2018-01-07T14:54:16.778Z,90.46
2018-01-07T14:56:44.984Z,90.77
2018-01-07T14:59:12.512Z,90.40
2018-01-07T15:01:40.040Z,90.49
2018-01-07T15:04:07.542Z,90.35
2018-01-07T15:06:35.112Z,90.50
2018-01-07T15:09:05.611Z,90.05
2018-01-07T15:11:33.225Z,90.29
2018-01-07T15:14:00.742Z,91.00
2018-01-07T15:16:28.260Z,90.70
2018-01-07T15:18:55.725Z,90.08
2018-01-07T15:21:23.254Z,90.25
2018-01-07T15:23:50.705Z,90.35
2018-01-07T15:26:18.214Z,90.17
2018-01-07T15:28:45.688Z,90.29
2018-01-07T15:31:13.167Z,90.78
2018-01-07T15:33:40.759Z,89.95
2018-01-07T15:36:08.269Z,90.14
2018-01-07T15:38:35.846Z,90.48
2018-01-07T15:41:03.307Z,90.17
2018-01-07T15:43:31.717Z,90.91
2018-01-07T15:45:59.223Z,90.52
2018-01-07T15:48:26.732Z,90.95
2018-01-07T15:50:54.230Z,91.04
2018-01-07T15:53:21.751Z,91.15
2018-01-07T15:55:49.234Z,91.16
2018-01-07T15:58:16.792Z,91.11
2018-01-07T16:00:44.335Z,90.98
2018-01-07T16:03:11.862Z,91.21
2018-01-07T16:05:39.386Z,91.70
2018-01-07T16:08:06.948Z,91.34
2018-01-07T16:10:34.423Z,91.70
2018-01-07T16:13:01.906Z,91.88
2018-01-07T16:15:29.426Z,91.31
2018-01-07T16:17:57.025Z,91.78
2018-01-07T16:20:24.478Z,91.38
2018-01-07T16:22:52.014Z,91.27
2018-01-07T16:25:19.511Z,91.29
2018-01-07T16:27:47.125Z,90.99
2018-01-07T16:30:14.633Z,91.04
2018-01-07T16:32:42.154Z,91.06
2018-01-07T16:35:11.044Z,91.01
2018-01-07T16:37:38.566Z,90.60
2018-01-07T16:40:06.072Z,90.54
2018-01-07T16:42:33.704Z,90.40
2018-01-07T16:45:02.261Z,90.25
2018-01-07T16:47:29.766Z,89.78
2018-01-07T16:49:57.321Z,90.06
2018-01-07T16:52:24.927Z,89.72
2018-01-07T16:54:52.562Z,90.12
2018-01-07T16:57:20.141Z,90.28
2018-01-07T16:59:47.710Z,90.17
2018-01-07T17:02:15.238Z,90.13
2018-01-07T17:04:42.739Z,90.09
2018-01-07T17:07:10.316Z,90.46
2018-01-07T17:09:37.898Z,90.32
2018-01-07T17:12:05.614Z,91.00
2018-01-07T17:14:33.160Z,90.54
2018-01-07T17:17:00.643Z,90.59
2018-01-07T17:19:28.099Z,90.42
2018-01-07T17:21:55.651Z,90.53
2018-01-07T17:24:23.153Z,90.15
2018-01-07T17:26:50.674Z,90.23
2018-01-07T17:29:18.211Z,90.06
2018-01-07T17:31:45.750Z,90.26
2018-01-07T17:34:13.300Z,90.15
2018-01-07T17:36:40.894Z,90.17
2018-01-07T17:39:08.409Z,89.95
2018-01-07T17:41:36.015Z,90.07
2018-01-07T17:44:03.569Z,89.94
2018-01-07T17:46:31.053Z,90.15
2018-01-07T17:48:58.575Z,90.46
2018-01-07T17:51:26.076Z,89.67
2018-01-07T17:53:53.642Z,89.37
2018-01-07T17:56:21.152Z,89.99
2018-01-07T17:58:48.664Z,89.28
2018-01-07T18:01:16.251Z,89.15
2018-01-07T18:03:43.744Z,89.65
2018-01-07T18:06:11.256Z,89.33
2018-01-07T18:08:38.804Z,89.36
2018-01-07T18:11:06.360Z,89.12
2018-01-07T18:13:33.971Z,89.25
2018-01-07T18:16:01.489Z,89.18
2018-01-07T18:18:29.010Z,89.39
2018-01-07T18:20:56.560Z,89.32
2018-01-07T18:23:24.144Z,89.13
2018-01-07T18:25:51.694Z,89.06
2018-01-07T18:28:19.294Z,88.83
2018-01-07T18:30:46.875Z,88.40
2018-01-07T18:33:14.409Z,89.16
2018-01-07T18:35:41.921Z,88.45
2018-01-07T18:38:09.438Z,90.00
2018-01-07T18:40:36.996Z,87.87
2018-01-07T18:43:04.513Z,87.52
2018-01-07T18:45:32.042Z,87.66
2018-01-07T18:47:59.569Z,87.85
2018-01-07T18:50:27.140Z,87.60
2018-01-07T18:52:54.659Z,87.94
2018-01-07T18:55:22.184Z,87.87
2018-01-07T18:57:49.712Z,87.70
2018-01-07T19:00:17.225Z,88.32
2018-01-07T19:02:44.760Z,87.67
2018-01-07T19:05:12.278Z,88.04
2018-01-07T19:07:39.777Z,87.74
2018-01-07T19:10:07.290Z,87.49
2018-01-07T19:12:34.800Z,87.73
2018-01-07T19:15:02.324Z,87.70
2018-01-07T19:17:29.837Z,87.76
2018-01-07T19:19:57.371Z,87.77
2018-01-07T19:22:24.884Z,87.55
2018-01-07T19:24:52.447Z,87.94
2018-01-07T19:27:19.956Z,87.54
2018-01-07T19:29:47.490Z,87.59
2018-01-07T19:32:15.027Z,87.62
2018-01-07T19:34:42.580Z,87.06
2018-01-07T19:37:10.105Z,87.73
2018-01-07T19:39:37.648Z,87.36
2018-01-07T19:42:05.190Z,87.11
2018-01-07T19:44:32.811Z,87.01
2018-01-07T19:47:00.336Z,87.57
2018-01-07T19:49:27.864Z,87.38
2018-01-07T19:51:55.393Z,87.63
2018-01-07T19:54:22.919Z,86.86
2018-01-07T19:56:50.463Z,86.94
2018-01-07T19:59:17.972Z,87.01
2018-01-07T20:01:45.514Z,87.55
2018-01-07T20:04:13.038Z,87.37
2018-01-07T20:06:40.559Z,87.00
2018-01-07T20:09:08.115Z,86.87
2018-01-07T20:11:35.653Z,86.71
2018-01-07T20:14:03.182Z,86.92
2018-01-07T20:16:31.006Z,86.79
2018-01-07T20:18:58.539Z,86.54
2018-01-07T20:21:26.042Z,86.81
2018-01-07T20:23:53.594Z,86.88
2018-01-07T20:26:21.133Z,86.51
2018-01-07T20:28:48.669Z,86.84
2018-01-07T20:31:16.193Z,86.50
2018-01-07T20:33:43.729Z,86.69
2018-01-07T20:36:11.298Z,86.29
2018-01-07T20:38:38.873Z,86.57
2018-01-07T20:41:06.403Z,86.65
2018-01-07T20:43:34.036Z,86.97
2018-01-07T20:46:01.610Z,86.81
2018-01-07T20:48:29.117Z,86.74
2018-01-07T20:50:56.656Z,86.63
2018-01-07T20:53:24.190Z,86.89
2018-01-07T20:55:51.694Z,86.75
2018-01-07T20:58:19.254Z,86.64
2018-01-07T21:00:46.866Z,87.02
2018-01-07T21:03:14.395Z,87.20
2018-01-07T21:05:41.906Z,87.34
2018-01-07T21:08:10.222Z,86.80
2018-01-07T21:10:37.740Z,86.62
2018-01-07T21:13:25.158Z,87.21
2018-01-07T21:15:54.472Z,87.12
2018-01-07T21:18:21.988Z,87.15
2018-01-07T21:20:49.509Z,87.10
2018-01-07T21:23:17.016Z,87.08
2018-01-07T21:25:44.605Z,86.88
2018-01-07T21:28:12.112Z,87.34
2018-01-07T21:30:39.647Z,87.71
2018-01-07T21:33:07.220Z,87.41
2018-01-07T21:35:34.734Z,87.40
2018-01-07T21:38:02.272Z,87.31
2018-01-07T21:40:29.803Z,87.53
2018-01-07T21:42:57.376Z,87.63
2018-01-07T21:45:24.959Z,87.76
2018-01-07T21:47:52.489Z,87.91
2018-01-07T21:50:20.010Z,87.97
2018-01-07T21:52:47.568Z,88.50
2018-01-07T21:55:15.102Z,88.73
2018-01-07T21:57:42.612Z,88.55
2018-01-07T22:00:33.925Z,89.38
2018-01-07T22:03:13.193Z,89.00
2018-01-07T22:05:55.588Z,89.17
2018-01-07T22:08:23.104Z,88.94
2018-01-07T22:10:50.620Z,89.40
2018-01-07T22:13:18.157Z,89.11
2018-01-07T22:15:45.666Z,89.16
2018-01-07T22:18:13.183Z,88.68
2018-01-07T22:20:40.717Z,88.83
2018-01-07T22:23:08.232Z,88.97
2018-01-07T22:25:35.750Z,88.47
2018-01-07T22:28:03.264Z,88.61
2018-01-07T22:30:30.836Z,88.60
2018-01-07T22:32:58.349Z,88.60
2018-01-07T22:35:25.869Z,88.66
2018-01-07T22:37:53.380Z,88.96
2018-01-07T22:40:20.911Z,88.62
2018-01-07T22:42:48.417Z,88.47
2018-01-07T22:45:15.933Z,88.22
2018-01-07T22:47:49.200Z,88.41
2018-01-07T22:50:16.692Z,88.28
2018-01-07T22:52:44.216Z,88.11
2018-01-07T22:55:11.733Z,88.08
2018-01-07T22:57:39.260Z,88.15
2018-01-07T23:00:06.796Z,87.96
2018-01-07T23:02:34.336Z,87.89
2018-01-07T23:05:01.878Z,87.56
2018-01-07T23:07:29.409Z,87.85
2018-01-07T23:09:56.955Z,87.59
2018-01-07T23:12:24.521Z,87.49
2018-01-07T23:14:52.060Z,87.22
2018-01-07T23:17:19.593Z,87.86
2018-01-07T23:19:52.290Z,87.71
2018-01-07T23:22:19.820Z,87.40
2018-01-07T23:24:47.398Z,87.61
2018-01-07T23:27:14.908Z,87.61
2018-01-07T23:29:42.436Z,87.33
2018-01-07T23:32:09.905Z,87.40
2018-01-07T23:34:37.425Z,87.22
2018-01-07T23:37:04.932Z,87.40
2018-01-07T23:39:32.482Z,87.34
2018-01-07T23:41:59.992Z,87.72
2018-01-07T23:44:27.540Z,87.33
2018-01-07T23:46:54.998Z,87.38
2018-01-07T23:49:22.506Z,86.89
2018-01-07T23:51:50.016Z,87.22
2018-01-07T23:54:17.622Z,86.90
2018-01-07T23:56:45.143Z,87.59
2018-01-07T23:59:12.601Z,88.07
